createdAt,value
2018-03-11T00:00:43.732Z,996.66
2018-03-11T00:01:43.687Z,996.71
2018-03-11T00:02:43.649Z,996.71
2018-03-11T00:03:43.604Z,996.69
2018-03-11T00:04:43.565Z,996.71
2018-03-11T00:05:43.520Z,996.70
2018-03-11T00:06:43.476Z,996.69
2018-03-11T00:07:43.434Z,996.67
2018-03-11T00:08:43.391Z,996.67
2018-03-11T00:09:43.348Z,996.71
2018-03-11T00:10:43.305Z,996.68
2018-03-11T00:11:43.265Z,996.70
2018-03-11T00:12:43.219Z,996.72
2018-03-11T00:13:43.178Z,996.68
2018-03-11T00:14:43.180Z,996.77
2018-03-11T00:15:43.092Z,996.74
2018-03-11T00:16:43.051Z,996.73
2018-03-11T00:17:43.007Z,996.72
2018-03-11T00:18:42.967Z,996.71
2018-03-11T00:19:42.920Z,996.71
2018-03-11T00:20:42.879Z,996.74
2018-03-11T00:21:42.835Z,996.70
2018-03-11T00:22:42.795Z,996.73
2018-03-11T00:23:42.751Z,996.68
2018-03-11T00:24:42.711Z,996.68
2018-03-11T00:25:42.671Z,996.68
2018-03-11T00:26:42.628Z,996.68
2018-03-11T00:27:42.581Z,996.65
2018-03-11T00:28:42.537Z,996.68
2018-03-11T00:29:42.499Z,996.66
2018-03-11T00:30:42.455Z,996.67
2018-03-11T00:31:42.411Z,996.64
2018-03-11T00:32:42.368Z,996.67
2018-03-11T00:33:42.324Z,996.66
2018-03-11T00:34:42.284Z,996.66
2018-03-11T00:35:42.248Z,996.71
2018-03-11T00:36:42.198Z,996.67
2018-03-11T00:37:42.159Z,996.72
2018-03-11T00:38:42.111Z,996.66
2018-03-11T00:39:42.069Z,996.71
2018-03-11T00:40:42.028Z,996.72
2018-03-11T00:41:41.984Z,996.71
2018-03-11T00:42:41.943Z,996.67
2018-03-11T00:44:41.862Z,996.62
2018-03-11T00:45:41.817Z,996.61
2018-03-11T00:46:41.770Z,996.58
2018-03-11T00:47:41.730Z,996.53
2018-03-11T00:48:41.688Z,996.53
2018-03-11T00:49:41.645Z,996.48
2018-03-11T00:50:41.600Z,996.52
2018-03-11T00:51:41.559Z,996.47
2018-03-11T00:52:41.519Z,996.51
2018-03-11T00:53:41.475Z,996.48
2018-03-11T00:54:41.431Z,996.46
2018-03-11T00:55:41.390Z,996.44
2018-03-11T00:56:41.345Z,996.43
2018-03-11T00:57:41.302Z,996.41
2018-03-11T00:58:41.264Z,996.39
2018-03-11T00:59:41.217Z,996.33
2018-03-11T01:00:41.175Z,996.34
2018-03-11T01:01:41.133Z,996.29
2018-03-11T01:02:41.089Z,996.28
2018-03-11T01:03:41.049Z,996.28
2018-03-11T01:04:41.091Z,996.22
2018-03-11T01:05:40.969Z,996.21
2018-03-11T01:06:40.919Z,996.19
2018-03-11T01:07:40.879Z,996.20
2018-03-11T01:08:40.844Z,996.14
2018-03-11T01:09:40.792Z,996.17
2018-03-11T01:10:40.748Z,996.15
2018-03-11T01:11:40.712Z,996.13
2018-03-11T01:12:40.661Z,996.10
2018-03-11T01:13:40.618Z,996.05
2018-03-11T01:14:40.578Z,996.07
2018-03-11T01:15:40.535Z,996.04
2018-03-11T01:16:40.497Z,996.09
2018-03-11T01:17:40.450Z,996.06
2018-03-11T01:18:40.408Z,996.02
2018-03-11T01:19:40.372Z,995.97
2018-03-11T01:20:40.335Z,995.97
2018-03-11T01:21:40.279Z,995.96
2018-03-11T01:22:40.236Z,995.93
2018-03-11T01:23:40.197Z,995.88
2018-03-11T01:24:40.148Z,995.86
2018-03-11T01:25:40.108Z,995.83
2018-03-11T01:26:40.066Z,995.80
2018-03-11T01:27:40.022Z,995.80
2018-03-11T01:28:39.980Z,995.77
2018-03-11T01:29:39.933Z,995.78
2018-03-11T01:30:39.891Z,995.74
2018-03-11T01:31:39.852Z,995.76
2018-03-11T01:32:39.808Z,995.70
2018-03-11T01:33:39.764Z,995.71
2018-03-11T01:34:39.721Z,995.67
2018-03-11T01:35:39.681Z,995.71
2018-03-11T01:36:39.633Z,995.70
2018-03-11T01:37:39.590Z,995.68
2018-03-11T01:38:39.547Z,995.62
2018-03-11T01:39:39.505Z,995.69
2018-03-11T01:40:39.462Z,995.64
2018-03-11T01:41:39.418Z,995.63
2018-03-11T01:42:39.400Z,995.61
2018-03-11T01:43:39.498Z,995.59
2018-03-11T01:44:39.947Z,995.60
2018-03-11T01:45:39.250Z,995.59
2018-03-11T01:46:39.204Z,995.57
2018-03-11T01:47:39.163Z,995.53
2018-03-11T01:48:39.116Z,995.58
2018-03-11T01:49:39.074Z,995.57
2018-03-11T01:50:39.036Z,995.60
2018-03-11T01:51:38.987Z,995.57
2018-03-11T01:52:38.944Z,995.56
2018-03-11T01:53:38.900Z,995.54
2018-03-11T01:54:38.858Z,995.52
2018-03-11T01:55:38.816Z,995.56
2018-03-11T01:56:38.773Z,995.51
2018-03-11T01:57:38.727Z,995.47
2018-03-11T01:58:38.687Z,995.46
2018-03-11T01:59:38.644Z,995.49
2018-03-11T02:00:38.606Z,995.46
2018-03-11T02:01:38.556Z,995.45
2018-03-11T02:02:38.519Z,995.48
2018-03-11T02:03:38.468Z,995.44
2018-03-11T02:04:38.430Z,995.47
2018-03-11T02:05:38.381Z,995.48
2018-03-11T02:06:38.338Z,995.46
2018-03-11T02:07:38.299Z,995.37
2018-03-11T02:08:38.251Z,995.40
2018-03-11T02:09:38.209Z,995.36
2018-03-11T02:10:38.167Z,995.32
2018-03-11T02:11:38.122Z,995.30
2018-03-11T02:12:38.081Z,995.31
2018-03-11T02:13:38.037Z,995.29
2018-03-11T02:14:37.992Z,995.24
2018-03-11T02:15:37.951Z,995.21
2018-03-11T02:16:37.911Z,995.19
2018-03-11T02:17:37.862Z,995.14
2018-03-11T02:18:37.819Z,995.11
2018-03-11T02:19:37.777Z,995.09
2018-03-11T02:20:37.738Z,995.03
2018-03-11T02:21:37.693Z,995.02
2018-03-11T02:22:37.647Z,995.01
2018-03-11T02:23:37.608Z,994.95
2018-03-11T02:24:37.562Z,994.94
2018-03-11T02:25:37.521Z,994.93
2018-03-11T02:26:37.481Z,994.89
2018-03-11T02:27:37.436Z,994.92
2018-03-11T02:28:37.392Z,994.87
2018-03-11T02:29:37.352Z,994.91
2018-03-11T02:30:37.302Z,994.87
2018-03-11T02:31:37.262Z,994.84
2018-03-11T02:32:37.218Z,994.82
2018-03-11T02:33:37.173Z,994.72
2018-03-11T02:34:37.129Z,994.75
2018-03-11T02:35:37.088Z,994.75
2018-03-11T02:36:37.048Z,994.72
2018-03-11T02:37:36.999Z,994.69
2018-03-11T02:38:36.958Z,994.62
2018-03-11T02:39:36.916Z,994.63
2018-03-11T02:40:36.870Z,994.63
2018-03-11T02:41:36.826Z,994.60
2018-03-11T02:42:36.784Z,994.56
2018-03-11T02:43:36.742Z,994.52
2018-03-11T02:44:36.701Z,994.50
2018-03-11T02:45:36.655Z,994.54
2018-03-11T02:46:36.616Z,994.54
2018-03-11T02:47:36.569Z,994.51
2018-03-11T02:48:36.528Z,994.50
2018-03-11T02:49:36.484Z,994.54
2018-03-11T02:50:36.437Z,994.52
2018-03-11T02:51:36.397Z,994.52
2018-03-11T02:52:36.362Z,994.47
2018-03-11T02:53:36.314Z,994.46
2018-03-11T02:54:36.271Z,994.45
2018-03-11T02:55:36.227Z,994.46
2018-03-11T02:56:36.182Z,994.46
2018-03-11T02:57:36.136Z,994.47
2018-03-11T02:58:36.112Z,994.45
2018-03-11T02:59:36.051Z,994.48
2018-03-11T03:00:36.009Z,994.45
2018-03-11T03:01:35.966Z,994.45
2018-03-11T03:02:35.920Z,994.47
2018-03-11T03:03:35.886Z,994.43
2018-03-11T03:04:35.830Z,994.41
2018-03-11T03:05:35.787Z,994.42
2018-03-11T03:06:35.745Z,994.40
2018-03-11T03:07:35.705Z,994.35
2018-03-11T03:08:35.661Z,994.39
2018-03-11T03:09:35.615Z,994.37
2018-03-11T03:10:35.572Z,994.37
2018-03-11T03:11:35.528Z,994.38
2018-03-11T03:12:35.486Z,994.37
2018-03-11T03:13:35.449Z,994.35
2018-03-11T03:14:35.404Z,994.33
2018-03-11T03:15:35.358Z,994.26
2018-03-11T03:16:35.315Z,994.28
2018-03-11T03:17:35.276Z,994.26
2018-03-11T03:18:35.223Z,994.19
2018-03-11T03:19:35.185Z,994.23
2018-03-11T03:20:35.139Z,994.19
2018-03-11T03:21:35.093Z,994.15
2018-03-11T03:22:35.051Z,994.11
2018-03-11T03:23:35.011Z,994.13
2018-03-11T03:24:34.968Z,994.12
2018-03-11T03:25:34.920Z,994.14
2018-03-11T03:26:34.876Z,994.11
2018-03-11T03:27:34.835Z,994.11
2018-03-11T03:28:34.789Z,994.12
2018-03-11T03:29:34.747Z,994.12
2018-03-11T03:30:34.703Z,994.13
2018-03-11T03:31:34.661Z,994.10
2018-03-11T03:32:34.614Z,994.10
2018-03-11T03:33:34.572Z,994.14
2018-03-11T03:34:34.529Z,994.10
2018-03-11T03:35:34.483Z,994.11
2018-03-11T03:36:34.442Z,994.08
2018-03-11T03:37:34.398Z,994.05
2018-03-11T03:38:34.353Z,994.04
2018-03-11T03:39:34.313Z,994.03
2018-03-11T03:40:34.266Z,994.01
2018-03-11T03:41:34.220Z,993.99
2018-03-11T03:42:34.176Z,993.99
2018-03-11T03:43:34.137Z,993.96
2018-03-11T03:44:34.091Z,993.95
2018-03-11T03:45:34.047Z,993.93
2018-03-11T03:46:34.008Z,993.88
2018-03-11T03:47:33.958Z,993.89
2018-03-11T03:48:33.914Z,993.83
2018-03-11T03:49:33.872Z,993.84
2018-03-11T03:50:33.828Z,993.79
2018-03-11T03:51:33.799Z,993.79
2018-03-11T03:52:33.737Z,993.78
2018-03-11T03:53:33.694Z,993.81
2018-03-11T03:54:33.658Z,993.77
2018-03-11T03:55:33.611Z,993.76
2018-03-11T03:56:33.568Z,993.75
2018-03-11T03:57:33.523Z,993.74
2018-03-11T03:58:33.478Z,993.70
2018-03-11T03:59:33.433Z,993.72
2018-03-11T04:00:33.389Z,993.65
2018-03-11T04:01:33.341Z,993.64
2018-03-11T04:02:33.295Z,993.61
2018-03-11T04:03:33.252Z,993.60
2018-03-11T04:04:33.206Z,993.59
2018-03-11T04:05:33.168Z,993.61
2018-03-11T04:06:33.127Z,993.58
2018-03-11T04:07:33.078Z,993.52
2018-03-11T04:08:33.032Z,993.48
2018-03-11T04:09:32.983Z,993.46
2018-03-11T04:10:32.943Z,993.43
2018-03-11T04:11:32.898Z,993.44
2018-03-11T04:12:32.853Z,993.42
2018-03-11T04:13:32.811Z,993.44
2018-03-11T04:14:32.763Z,993.44
2018-03-11T04:15:32.721Z,993.43
2018-03-11T04:16:32.680Z,993.43
2018-03-11T04:17:32.629Z,993.41
2018-03-11T04:18:32.586Z,993.42
2018-03-11T04:19:32.542Z,993.38
2018-03-11T04:20:32.500Z,993.36
2018-03-11T04:21:32.451Z,993.35
2018-03-11T04:22:32.407Z,993.33
2018-03-11T04:23:32.365Z,993.29
2018-03-11T04:24:32.318Z,993.30
2018-03-11T04:25:32.280Z,993.27
2018-03-11T04:26:32.239Z,993.28
2018-03-11T04:27:32.186Z,993.28
2018-03-11T04:28:32.142Z,993.26
2018-03-11T04:29:32.094Z,993.25
2018-03-11T04:30:32.052Z,993.18
2018-03-11T04:31:32.009Z,993.12
2018-03-11T04:32:31.961Z,993.13
2018-03-11T04:33:31.922Z,993.10
2018-03-11T04:34:31.877Z,993.06
2018-03-11T04:35:31.827Z,993.05
2018-03-11T04:36:31.781Z,993.03
2018-03-11T04:37:31.740Z,992.96
2018-03-11T04:38:31.691Z,992.89
2018-03-11T04:39:31.649Z,992.82
2018-03-11T04:40:31.606Z,992.81
2018-03-11T04:41:31.558Z,992.80
2018-03-11T04:42:31.518Z,992.74
2018-03-11T04:43:31.469Z,992.76
2018-03-11T04:44:31.424Z,992.81
2018-03-11T04:45:31.378Z,992.83
2018-03-11T04:46:31.334Z,992.83
2018-03-11T04:47:31.289Z,992.76
2018-03-11T04:48:31.246Z,992.82
2018-03-11T04:49:31.199Z,992.73
2018-03-11T04:50:31.155Z,992.76
2018-03-11T04:51:31.110Z,992.69
2018-03-11T04:52:31.073Z,992.66
2018-03-11T04:53:31.019Z,992.64
2018-03-11T04:54:30.982Z,992.64
2018-03-11T04:55:30.936Z,992.57
2018-03-11T04:56:30.889Z,992.58
2018-03-11T04:57:30.841Z,992.62
2018-03-11T04:58:30.799Z,992.60
2018-03-11T04:59:30.750Z,992.62
2018-03-11T05:00:30.707Z,992.60
2018-03-11T05:01:30.662Z,992.58
2018-03-11T05:02:30.618Z,992.58
2018-03-11T05:03:30.576Z,992.55
2018-03-11T05:04:30.528Z,992.58
2018-03-11T05:05:30.486Z,992.52
2018-03-11T05:06:30.439Z,992.54
2018-03-11T05:07:30.396Z,992.52
2018-03-11T05:08:30.351Z,992.54
2018-03-11T05:09:30.308Z,992.53
2018-03-11T05:10:30.259Z,992.56
2018-03-11T05:11:30.221Z,992.53
2018-03-11T05:12:30.170Z,992.54
2018-03-11T05:13:30.126Z,992.55
2018-03-11T05:14:30.078Z,992.51
2018-03-11T05:15:30.040Z,992.49
2018-03-11T05:16:29.991Z,992.51
2018-03-11T05:17:29.949Z,992.50
2018-03-11T05:18:29.901Z,992.45
2018-03-11T05:19:29.854Z,992.44
2018-03-11T05:20:29.809Z,992.42
2018-03-11T05:21:29.770Z,992.36
2018-03-11T05:22:29.718Z,992.35
2018-03-11T05:23:29.674Z,992.31
2018-03-11T05:24:29.637Z,992.31
2018-03-11T05:25:29.584Z,992.26
2018-03-11T05:26:29.539Z,992.23
2018-03-11T05:27:29.509Z,992.15
2018-03-11T05:28:29.448Z,992.11
2018-03-11T05:29:29.405Z,992.04
2018-03-11T05:30:29.359Z,991.99
2018-03-11T05:31:29.314Z,991.98
2018-03-11T05:32:29.270Z,991.95
2018-03-11T05:33:29.224Z,991.98
2018-03-11T05:34:29.182Z,991.97
2018-03-11T05:35:29.135Z,992.00
2018-03-11T05:36:29.089Z,992.04
2018-03-11T05:37:29.049Z,992.08
2018-03-11T05:38:29.000Z,992.11
2018-03-11T05:39:28.961Z,992.13
2018-03-11T05:40:28.908Z,992.12
2018-03-11T05:41:28.862Z,992.06
2018-03-11T05:42:28.819Z,992.07
2018-03-11T05:43:28.774Z,992.06
2018-03-11T05:44:28.733Z,992.04
2018-03-11T05:45:28.689Z,992.05
2018-03-11T05:46:28.640Z,992.05
2018-03-11T05:47:28.595Z,991.99
2018-03-11T05:48:28.550Z,992.01
2018-03-11T05:49:28.503Z,991.97
2018-03-11T05:50:28.464Z,991.94
2018-03-11T05:51:28.414Z,992.00
2018-03-11T05:52:28.370Z,991.98
2018-03-11T05:53:28.341Z,992.02
2018-03-11T05:54:28.282Z,991.99
2018-03-11T05:55:28.245Z,991.97
2018-03-11T05:56:28.193Z,991.97
2018-03-11T05:57:28.142Z,991.95
2018-03-11T05:58:28.098Z,991.93
2018-03-11T05:59:28.065Z,991.92
2018-03-11T06:00:28.018Z,991.89
2018-03-11T06:01:27.961Z,991.92
2018-03-11T06:02:27.924Z,991.91
2018-03-11T06:03:27.875Z,991.93
2018-03-11T06:04:27.830Z,991.90
2018-03-11T06:05:27.782Z,991.87
2018-03-11T06:06:27.739Z,991.89
2018-03-11T06:07:27.692Z,991.84
2018-03-11T06:08:27.649Z,991.88
2018-03-11T06:09:27.602Z,991.78
2018-03-11T06:10:27.559Z,991.79
2018-03-11T06:11:27.515Z,991.77
2018-03-11T06:12:27.474Z,991.75
2018-03-11T06:13:27.427Z,991.74
2018-03-11T06:14:27.383Z,991.74
2018-03-11T06:15:27.341Z,991.72
2018-03-11T06:16:27.291Z,991.74
2018-03-11T06:17:27.244Z,991.73
2018-03-11T06:18:27.199Z,991.67
2018-03-11T06:19:27.152Z,991.68
2018-03-11T06:20:27.110Z,991.64
2018-03-11T06:21:27.064Z,991.60
2018-03-11T06:22:27.020Z,991.63
2018-03-11T06:23:26.982Z,991.65
2018-03-11T06:24:26.928Z,991.61
2018-03-11T06:25:26.883Z,991.67
2018-03-11T06:26:26.852Z,991.71
2018-03-11T06:27:26.796Z,991.71
2018-03-11T06:28:26.752Z,991.68
2018-03-11T06:29:26.705Z,991.65
2018-03-11T06:30:26.662Z,991.63
2018-03-11T06:31:26.622Z,991.56
2018-03-11T06:32:26.602Z,991.56
2018-03-11T06:33:26.524Z,991.54
2018-03-11T06:34:26.482Z,991.59
2018-03-11T06:35:26.439Z,991.57
2018-03-11T06:36:26.396Z,991.52
2018-03-11T06:37:26.346Z,991.54
2018-03-11T06:38:26.302Z,991.51
2018-03-11T06:39:26.258Z,991.56
2018-03-11T06:40:26.215Z,991.48
2018-03-11T06:41:26.165Z,991.52
2018-03-11T06:42:26.121Z,991.49
2018-03-11T06:43:26.077Z,991.45
2018-03-11T06:44:26.030Z,991.40
2018-03-11T06:45:25.988Z,991.42
2018-03-11T06:46:25.942Z,991.44
2018-03-11T06:47:25.897Z,991.43
2018-03-11T06:48:25.854Z,991.43
2018-03-11T06:49:25.807Z,991.44
2018-03-11T06:50:25.766Z,991.40
2018-03-11T06:51:25.721Z,991.40
2018-03-11T06:52:25.674Z,991.35
2018-03-11T06:53:25.629Z,991.32
2018-03-11T06:54:25.585Z,991.28
2018-03-11T06:55:25.541Z,991.32
2018-03-11T06:56:25.496Z,991.30
2018-03-11T06:57:25.450Z,991.38
2018-03-11T06:58:25.406Z,991.38
2018-03-11T06:59:25.390Z,991.40
2018-03-11T07:00:25.325Z,991.40
2018-03-11T07:01:25.274Z,991.40
2018-03-11T07:02:25.230Z,991.36
2018-03-11T07:03:25.185Z,991.41
2018-03-11T07:04:25.141Z,991.34
2018-03-11T07:05:25.095Z,991.32
2018-03-11T07:06:25.051Z,991.33
2018-03-11T07:07:25.007Z,991.36
2018-03-11T07:08:24.964Z,991.33
2018-03-11T07:09:24.917Z,991.34
2018-03-11T07:10:24.876Z,991.31
2018-03-11T07:11:24.829Z,991.26
2018-03-11T07:12:24.786Z,991.29
2018-03-11T07:13:24.745Z,991.26
2018-03-11T07:14:24.697Z,991.27
2018-03-11T07:15:24.652Z,991.22
2018-03-11T07:16:24.611Z,991.24
2018-03-11T07:17:24.565Z,991.28
2018-03-11T07:18:24.522Z,991.27
2018-03-11T07:19:24.476Z,991.32
2018-03-11T07:20:24.434Z,991.27
2018-03-11T07:21:24.389Z,991.24
2018-03-11T07:22:24.346Z,991.22
2018-03-11T07:23:24.305Z,991.18
2018-03-11T07:24:24.257Z,991.22
2018-03-11T07:25:24.212Z,991.21
2018-03-11T07:26:24.167Z,991.21
2018-03-11T07:27:24.123Z,991.24
2018-03-11T07:28:24.086Z,991.17
2018-03-11T07:29:24.038Z,991.15
2018-03-11T07:30:23.994Z,991.12
2018-03-11T07:31:23.952Z,991.01
2018-03-11T07:32:23.910Z,990.96
2018-03-11T07:33:23.861Z,990.92
2018-03-11T07:34:23.821Z,990.90
2018-03-11T07:35:23.778Z,990.87
2018-03-11T07:36:23.732Z,990.85
2018-03-11T07:37:23.691Z,990.84
2018-03-11T07:38:23.648Z,990.84
2018-03-11T07:39:23.602Z,990.91
2018-03-11T07:40:23.560Z,990.90
2018-03-11T07:41:23.553Z,990.91
2018-03-11T07:42:23.479Z,990.91
2018-03-11T07:43:23.432Z,990.93
2018-03-11T07:44:23.397Z,990.91
2018-03-11T07:45:23.344Z,990.94
2018-03-11T07:46:23.301Z,990.90
2018-03-11T07:47:23.258Z,990.91
2018-03-11T07:48:23.217Z,990.91
2018-03-11T07:49:23.180Z,990.92
2018-03-11T07:50:23.129Z,990.95
2018-03-11T07:51:23.086Z,990.94
2018-03-11T07:52:23.044Z,990.91
2018-03-11T07:53:23.002Z,990.95
2018-03-11T07:54:22.961Z,990.90
2018-03-11T07:55:22.915Z,990.86
2018-03-11T07:56:22.887Z,990.96
2018-03-11T07:57:22.833Z,990.95
2018-03-11T07:58:22.785Z,990.89
2018-03-11T07:59:22.748Z,990.94
2018-03-11T08:00:22.699Z,990.97
2018-03-11T08:01:22.658Z,990.98
2018-03-11T08:02:22.614Z,991.01
2018-03-11T08:03:22.580Z,990.97
2018-03-11T08:04:22.532Z,991.03
2018-03-11T08:05:22.492Z,990.99
2018-03-11T08:06:22.443Z,991.06
2018-03-11T08:07:22.400Z,991.04
2018-03-11T08:08:22.359Z,991.13
2018-03-11T08:09:22.315Z,991.10
2018-03-11T08:10:22.276Z,991.11
2018-03-11T08:11:22.234Z,991.14
2018-03-11T08:12:22.190Z,991.11
2018-03-11T08:13:22.144Z,991.11
2018-03-11T08:14:22.104Z,991.10
2018-03-11T08:15:22.064Z,991.10
2018-03-11T08:16:22.019Z,991.07
2018-03-11T08:17:21.975Z,991.10
2018-03-11T08:18:21.939Z,991.00
2018-03-11T08:19:21.889Z,991.12
2018-03-11T08:20:21.848Z,991.15
2018-03-11T08:21:21.806Z,991.11
2018-03-11T08:22:21.766Z,991.10
2018-03-11T08:23:21.721Z,991.11
2018-03-11T08:24:21.676Z,991.17
2018-03-11T08:25:21.636Z,991.09
2018-03-11T08:26:21.592Z,991.17
2018-03-11T08:27:21.548Z,991.18
2018-03-11T08:28:21.508Z,991.14
2018-03-11T08:29:21.468Z,991.17
2018-03-11T08:30:21.423Z,991.13
2018-03-11T08:31:21.381Z,991.14
2018-03-11T08:32:21.338Z,991.10
2018-03-11T08:33:21.299Z,991.00
2018-03-11T08:34:21.253Z,991.17
2018-03-11T08:35:21.219Z,991.21
2018-03-11T08:36:21.171Z,991.15
2018-03-11T08:37:21.139Z,991.19
2018-03-11T08:38:21.084Z,991.18
2018-03-11T08:39:21.044Z,991.15
2018-03-11T08:40:21.004Z,991.05
2018-03-11T08:41:20.959Z,991.17
2018-03-11T08:42:20.916Z,991.15
2018-03-11T08:43:20.874Z,991.15
2018-03-11T08:44:20.839Z,991.15
2018-03-11T08:45:20.790Z,991.09
2018-03-11T08:46:20.749Z,991.07
2018-03-11T08:47:20.709Z,991.09
2018-03-11T08:48:20.708Z,991.13
2018-03-11T08:49:20.621Z,991.05
2018-03-11T08:50:20.583Z,990.94
2018-03-11T08:51:20.539Z,991.15
2018-03-11T08:52:20.497Z,991.09
2018-03-11T08:53:20.455Z,991.06
2018-03-11T08:54:20.413Z,990.99
2018-03-11T08:55:20.370Z,991.00
2018-03-11T08:56:20.382Z,990.99
2018-03-11T08:57:20.288Z,990.99
2018-03-11T08:58:20.249Z,990.96
2018-03-11T08:59:20.253Z,991.03
2018-03-11T09:00:20.162Z,990.96
2018-03-11T09:01:20.122Z,990.99
2018-03-11T09:02:20.112Z,991.01
2018-03-11T09:03:20.039Z,990.99
2018-03-11T09:04:19.995Z,991.04
2018-03-11T09:05:19.957Z,991.03
2018-03-11T09:06:19.912Z,990.96
2018-03-11T09:07:19.871Z,990.96
2018-03-11T09:08:19.831Z,990.98
2018-03-11T09:09:19.789Z,990.99
2018-03-11T09:10:19.751Z,991.00
2018-03-11T09:11:19.707Z,991.08
2018-03-11T09:12:19.675Z,991.09
2018-03-11T09:13:19.629Z,991.09
2018-03-11T09:14:19.587Z,991.14
2018-03-11T09:15:19.545Z,991.12
2018-03-11T09:16:19.502Z,991.16
2018-03-11T09:17:19.459Z,991.11
2018-03-11T09:18:19.421Z,991.12
2018-03-11T09:19:19.376Z,991.12
2018-03-11T09:20:19.335Z,991.10
2018-03-11T09:21:19.296Z,991.11
2018-03-11T09:22:19.253Z,991.18
2018-03-11T09:23:19.215Z,991.10
2018-03-11T09:24:19.173Z,991.21
2018-03-11T09:25:19.135Z,991.14
2018-03-11T09:26:19.092Z,991.14
2018-03-11T09:27:19.047Z,991.14
2018-03-11T09:28:19.006Z,990.99
2018-03-11T09:29:18.963Z,991.16
2018-03-11T09:30:18.924Z,991.04
2018-03-11T09:31:18.881Z,990.98
2018-03-11T09:32:18.837Z,990.95
2018-03-11T09:33:18.800Z,990.94
2018-03-11T09:34:18.756Z,990.93
2018-03-11T09:35:18.714Z,991.08
2018-03-11T09:36:18.675Z,991.01
2018-03-11T09:37:18.630Z,991.02
2018-03-11T09:38:18.589Z,991.03
2018-03-11T09:39:18.555Z,991.03
2018-03-11T09:40:18.529Z,991.01
2018-03-11T09:41:18.469Z,991.01
2018-03-11T09:42:18.428Z,990.96
2018-03-11T09:43:18.383Z,991.01
2018-03-11T09:44:18.346Z,991.00
2018-03-11T09:45:18.303Z,991.02
2018-03-11T09:46:18.260Z,991.02
2018-03-11T09:47:18.224Z,991.05
2018-03-11T09:48:18.175Z,991.03
2018-03-11T09:49:18.137Z,990.97
2018-03-11T09:50:18.114Z,990.99
2018-03-11T09:51:18.053Z,990.92
2018-03-11T09:52:18.011Z,990.93
2018-03-11T09:53:17.967Z,990.82
2018-03-11T09:54:17.927Z,990.88
2018-03-11T09:55:17.886Z,990.91
2018-03-11T09:56:17.844Z,990.81
2018-03-11T09:57:17.805Z,990.81
2018-03-11T09:58:17.811Z,990.83
2018-03-11T09:59:17.722Z,990.83
2018-03-11T10:00:17.679Z,990.88
2018-03-11T10:01:17.641Z,990.86
2018-03-11T10:02:17.599Z,990.95
2018-03-11T10:03:17.557Z,990.94
2018-03-11T10:04:17.514Z,990.94
2018-03-11T10:05:17.473Z,990.97
2018-03-11T10:06:17.431Z,990.88
2018-03-11T10:07:17.389Z,990.90
2018-03-11T10:08:17.352Z,990.92
2018-03-11T10:09:17.308Z,990.89
2018-03-11T10:10:17.268Z,990.95
2018-03-11T10:11:17.225Z,990.86
2018-03-11T10:12:17.185Z,990.79
2018-03-11T10:13:17.144Z,990.86
2018-03-11T10:15:17.062Z,990.83
2018-03-11T10:16:17.076Z,990.86
2018-03-11T10:17:16.985Z,990.88
2018-03-11T10:18:16.946Z,990.88
2018-03-11T10:19:16.901Z,990.81
2018-03-11T10:20:16.862Z,990.75
2018-03-11T10:21:16.819Z,990.81
2018-03-11T10:22:16.776Z,990.79
2018-03-11T10:23:16.740Z,990.85
2018-03-11T10:24:16.695Z,990.83
2018-03-11T10:25:16.653Z,990.82
2018-03-11T10:26:16.611Z,990.83
2018-03-11T10:27:16.569Z,990.83
2018-03-11T10:28:16.536Z,990.80
2018-03-11T10:29:16.492Z,990.78
2018-03-11T10:30:16.450Z,990.72
2018-03-11T10:31:16.414Z,990.73
2018-03-11T10:32:16.371Z,990.77
2018-03-11T10:33:16.335Z,990.78
2018-03-11T10:34:16.299Z,990.78
2018-03-11T10:35:16.246Z,990.80
2018-03-11T10:36:16.207Z,990.78
2018-03-11T10:37:16.192Z,990.67
2018-03-11T10:38:16.124Z,990.81
2018-03-11T10:39:16.096Z,990.77
2018-03-11T10:40:16.040Z,990.84
2018-03-11T10:41:16.002Z,990.73
2018-03-11T10:42:15.958Z,990.76
2018-03-11T10:43:15.917Z,990.79
2018-03-11T10:44:15.877Z,990.79
2018-03-11T10:45:15.833Z,990.75
2018-03-11T10:46:15.794Z,990.82
2018-03-11T10:47:15.752Z,990.79
2018-03-11T10:48:15.711Z,990.73
2018-03-11T10:49:15.672Z,990.72
2018-03-11T10:50:15.629Z,990.76
2018-03-11T10:51:15.592Z,990.73
2018-03-11T10:52:15.549Z,990.77
2018-03-11T10:53:15.507Z,990.79
2018-03-11T10:54:15.469Z,990.83
2018-03-11T10:55:15.425Z,990.80
2018-03-11T10:56:15.387Z,990.71
2018-03-11T10:57:15.343Z,990.74
2018-03-11T10:58:15.350Z,990.88
2018-03-11T10:59:15.262Z,990.81
2018-03-11T11:00:15.274Z,990.78
2018-03-11T11:01:15.181Z,990.81
2018-03-11T11:02:15.146Z,990.79
2018-03-11T11:03:15.102Z,990.83
2018-03-11T11:04:15.061Z,990.80
2018-03-11T11:05:15.017Z,990.82
2018-03-11T11:06:14.979Z,990.87
2018-03-11T11:07:14.940Z,990.83
2018-03-11T11:08:14.899Z,990.89
2018-03-11T11:09:14.857Z,990.83
2018-03-11T11:10:14.816Z,990.83
2018-03-11T11:11:14.777Z,990.79
2018-03-11T11:12:14.732Z,990.90
2018-03-11T11:13:14.692Z,990.91
2018-03-11T11:14:14.652Z,990.85
2018-03-11T11:15:14.611Z,990.90
2018-03-11T11:16:14.571Z,990.82
2018-03-11T11:17:14.527Z,990.84
2018-03-11T11:18:14.491Z,990.87
2018-03-11T11:19:14.453Z,990.81
2018-03-11T11:20:14.408Z,990.91
2018-03-11T11:21:14.366Z,990.82
2018-03-11T11:22:14.325Z,990.79
2018-03-11T11:23:14.286Z,990.80
2018-03-11T11:24:14.246Z,990.88
2018-03-11T11:25:14.206Z,990.86
2018-03-11T11:26:14.169Z,990.88
2018-03-11T11:27:14.123Z,990.85
2018-03-11T11:28:14.111Z,990.97
2018-03-11T11:30:14.015Z,990.83
2018-03-11T11:31:13.966Z,990.88
2018-03-11T11:32:13.943Z,990.94
2018-03-11T11:33:13.883Z,990.96
2018-03-11T11:34:13.843Z,990.94
2018-03-11T11:35:13.799Z,990.94
2018-03-11T11:36:13.759Z,990.91
2018-03-11T11:37:13.719Z,990.90
2018-03-11T11:38:13.678Z,991.00
2018-03-11T11:39:13.641Z,990.98
2018-03-11T11:40:13.598Z,990.95
2018-03-11T11:41:13.559Z,990.97
2018-03-11T11:42:13.522Z,990.96
2018-03-11T11:43:13.502Z,990.96
2018-03-11T11:44:13.436Z,990.96
2018-03-11T11:45:13.405Z,990.94
2018-03-11T11:46:13.360Z,990.99
2018-03-11T11:47:13.316Z,990.89
2018-03-11T11:48:13.280Z,990.82
2018-03-11T11:49:13.239Z,990.99
2018-03-11T11:50:13.198Z,991.09
2018-03-11T11:51:13.156Z,990.87
2018-03-11T11:52:13.118Z,990.96
2018-03-11T11:53:13.076Z,991.05
2018-03-11T11:54:13.040Z,990.96
2018-03-11T11:55:13.010Z,991.08
2018-03-11T11:56:13.017Z,991.08
2018-03-11T11:57:12.917Z,991.03
2018-03-11T11:58:12.909Z,991.04
2018-03-11T11:59:12.836Z,991.06
2018-03-11T12:00:12.797Z,991.02
2018-03-11T12:01:12.756Z,991.02
2018-03-11T12:02:12.727Z,990.96
2018-03-11T12:03:12.680Z,991.00
2018-03-11T12:04:12.642Z,990.98
2018-03-11T12:05:12.607Z,990.95
2018-03-11T12:06:12.558Z,990.84
2018-03-11T12:07:12.522Z,990.86
2018-03-11T12:08:12.482Z,990.89
2018-03-11T12:09:12.436Z,990.91
2018-03-11T12:10:12.411Z,990.89
2018-03-11T12:11:12.362Z,990.88
2018-03-11T12:12:12.321Z,990.84
2018-03-11T12:13:12.279Z,990.73
2018-03-11T12:14:12.238Z,990.77
2018-03-11T12:15:12.206Z,990.78
2018-03-11T12:16:12.161Z,990.80
2018-03-11T12:17:12.121Z,991.02
2018-03-11T12:18:12.076Z,990.81
2018-03-11T12:19:12.041Z,990.77
2018-03-11T12:20:11.996Z,990.81
2018-03-11T12:21:11.958Z,990.76
2018-03-11T12:22:11.919Z,990.78
2018-03-11T12:23:11.890Z,990.71
2018-03-11T12:24:11.837Z,990.75
2018-03-11T12:25:11.802Z,990.67
2018-03-11T12:26:11.766Z,990.67
2018-03-11T12:27:11.717Z,990.71
2018-03-11T12:28:11.677Z,990.71
2018-03-11T12:29:11.637Z,990.64
2018-03-11T12:30:11.598Z,990.64
2018-03-11T12:31:11.556Z,990.58